Time;durP1;ratioP1;P1;durP2;ratioP2;P2;SDS_P1;SDS_P2;PMS_P1;PMS_P2;Temp;Humidity;BMP_temperature;BMP_pressure;BME280_temperature;BME280_humidity;BME280_pressure;Samples;Min_cycle;Max_cycle;Signal;HPM_P1;HPM_P2
2022/01/07 00:01:22;;;;;;;;;;;4.80;99.90;;;;;;4979584;28;19976;-91
2022/01/07 00:03:48;;;;;;;;;;;4.80;99.90;;;;;;4979799;28;19922;-91
2022/01/07 00:06:15;;;;;;;;;;;4.90;99.90;;;;;;4979607;28;19926;-91
2022/01/07 00:08:42;;;;;;;;;;;4.90;99.90;;;;;;4979571;28;19957;-91
2022/01/07 00:11:09;;;;;;;;;;;4.80;99.90;;;;;;4979107;28;20431;-90
2022/01/07 00:13:36;;;;;;;;;;;4.70;99.90;;;;;;4979062;28;19929;-90
2022/01/07 00:16:03;;;;;;;;;;;4.60;99.90;;;;;;4980477;28;19928;-91
2022/01/07 00:18:32;;;;;;;;;;;5.10;99.90;;;;;;4981320;28;19929;-90
2022/01/07 00:20:59;;;;;;;;;;;4.90;99.90;;;;;;4979800;28;20021;-91
2022/01/07 00:23:26;;;;;;;;;;;4.80;99.90;;;;;;4979176;28;19922;-91
2022/01/07 00:25:53;;;;;;;;;;;4.60;99.90;;;;;;4979147;28;19922;-90
2022/01/07 00:28:20;;;;;;;;;;;3.40;99.90;;;;;;4979242;28;19922;-91
2022/01/07 00:30:47;;;;;;;;;;;4.80;99.90;;;;;;4978828;28;19922;-91
2022/01/07 00:33:14;;;;;;;;;;;5.20;99.90;;;;;;4979246;28;19965;-91
2022/01/07 00:35:43;;;;;;;;;;;4.40;99.90;;;;;;4978682;28;19929;-90
2022/01/07 00:38:10;;;;;;;;;;;4.50;99.90;;;;;;4978829;28;19929;-91
2022/01/07 00:40:37;;;;;;;;;;;5.20;99.90;;;;;;4979166;28;19922;-91
2022/01/07 00:43:03;;;;;;;;;;;5.10;99.90;;;;;;4979009;28;20013;-91
2022/01/07 00:45:30;;;;;;;;;;;4.30;99.90;;;;;;4978260;28;19929;-90
2022/01/07 00:47:58;;;;;;;;;;;4.40;99.90;;;;;;4978900;28;19929;-91
2022/01/07 00:50:25;;;;;;;;;;;4.60;99.90;;;;;;4978159;28;20368;-91
2022/01/07 00:52:54;;;;;;;;;;;4.40;99.90;;;;;;4978748;28;19922;-91
2022/01/07 00:55:21;;;;;;;;;;;4.90;99.90;;;;;;4979765;28;19925;-90
2022/01/07 00:57:48;;;;;;;;;;;4.60;99.90;;;;;;4997946;28;19925;-91
2022/01/07 01:00:16;;;;;;;;;;;2.80;99.90;;;;;;4997733;28;20339;-90
2022/01/07 01:02:43;;;;;;;;;;;3.90;99.90;;;;;;4997816;28;20338;-90
2022/01/07 01:05:11;;;;;;;;;;;4.50;99.90;;;;;;4984253;28;19932;-90
2022/01/07 01:07:38;;;;;;;;;;;4.30;99.90;;;;;;4978428;28;19921;-90
2022/01/07 01:10:07;;;;;;;;;;;4.60;99.90;;;;;;4978670;28;19922;-90
2022/01/07 01:12:34;;;;;;;;;;;4.90;99.90;;;;;;4978733;28;19926;-90
2022/01/07 01:15:01;;;;;;;;;;;4.40;99.90;;;;;;4978087;28;20292;-90
2022/01/07 01:17:28;;;;;;;;;;;4.60;99.90;;;;;;4978143;28;20380;-90
2022/01/07 01:19:54;;;;;;;;;;;3.60;99.90;;;;;;4978468;28;19921;-90
2022/01/07 01:22:21;;;;;;;;;;;4.20;99.90;;;;;;4977951;28;19921;-90
2022/01/07 01:24:48;;;;;;;;;;;4.20;99.90;;;;;;4978171;28;19926;-90
2022/01/07 01:27:16;;;;;;;;;;;4.20;99.90;;;;;;4978264;28;19921;-91
2022/01/07 01:29:43;;;;;;;;;;;4.20;99.90;;;;;;4978179;28;19928;-90
2022/01/07 01:32:10;;;;;;;;;;;4.40;99.90;;;;;;4977933;28;19929;-90
2022/01/07 01:34:37;;;;;;;;;;;4.40;99.90;;;;;;4977452;28;19949;-90
2022/01/07 01:37:06;;;;;;;;;;;4.00;99.90;;;;;;4977898;28;20384;-90
2022/01/07 01:39:33;;;;;;;;;;;4.00;99.90;;;;;;4977780;28;19926;-90
2022/01/07 01:42:00;;;;;;;;;;;4.80;99.90;;;;;;4978034;28;19926;-90
2022/01/07 01:44:28;;;;;;;;;;;3.90;99.90;;;;;;4977647;28;19986;-91
2022/01/07 01:46:56;;;;;;;;;;;3.90;99.90;;;;;;4977821;28;19929;-90
2022/01/07 01:49:23;;;;;;;;;;;3.90;99.90;;;;;;4977562;28;20368;-90
2022/01/07 01:51:53;;;;;;;;;;;4.50;99.90;;;;;;4977808;28;19926;-90
2022/01/07 01:54:20;;;;;;;;;;;3.60;99.90;;;;;;4977650;28;19926;-90
2022/01/07 01:56:47;;;;;;;;;;;4.10;99.90;;;;;;4990092;28;20356;-90
2022/01/07 01:59:14;;;;;;;;;;;3.80;99.90;;;;;;4996537;28;20414;-90
2022/01/07 02:01:42;;;;;;;;;;;3.80;99.90;;;;;;4982368;28;19922;-90
2022/01/07 02:04:09;;;;;;;;;;;4.00;99.90;;;;;;4976914;28;19948;-91
2022/01/07 02:06:36;;;;;;;;;;;4.10;99.90;;;;;;4976583;28;19922;-90
2022/01/07 02:09:03;;;;;;;;;;;3.90;99.90;;;;;;4977089;28;19922;-90
2022/01/07 02:11:31;;;;;;;;;;;3.90;99.90;;;;;;4976501;28;19926;-90
2022/01/07 02:13:58;;;;;;;;;;;3.80;99.90;;;;;;4976324;28;20365;-89
2022/01/07 02:16:26;;;;;;;;;;;3.80;99.90;;;;;;4976417;28;20316;-90
2022/01/07 02:18:55;;;;;;;;;;;3.80;99.90;;;;;;4977679;28;19970;-91
2022/01/07 02:21:24;;;;;;;;;;;3.60;99.90;;;;;;4977672;28;19922;-90
2022/01/07 02:23:51;;;;;;;;;;;3.90;99.90;;;;;;4977281;28;19926;-89
2022/01/07 02:26:18;;;;;;;;;;;3.80;99.90;;;;;;4977309;28;20269;-90
2022/01/07 02:28:46;;;;;;;;;;;2.70;99.90;;;;;;4976007;28;19929;-90
2022/01/07 02:31:14;;;;;;;;;;;3.70;99.90;;;;;;4975961;28;19922;-89
2022/01/07 02:33:40;;;;;;;;;;;3.70;99.90;;;;;;4975593;28;19937;-90
2022/01/07 02:36:08;;;;;;;;;;;4.60;99.90;;;;;;4975793;28;19922;-90
2022/01/07 02:38:36;;;;;;;;;;;3.90;99.90;;;;;;4977123;28;19922;-89
2022/01/07 02:41:03;;;;;;;;;;;4.60;99.90;;;;;;4976326;28;19961;-89
2022/01/07 02:43:30;;;;;;;;;;;3.80;99.90;;;;;;4975930;28;19933;-90
2022/01/07 02:45:57;;;;;;;;;;;4.00;99.90;;;;;;4975794;28;19931;-89
2022/01/07 02:48:24;;;;;;;;;;;4.30;99.90;;;;;;4975308;28;19945;-89
2022/01/07 02:50:51;;;;;;;;;;;3.80;99.90;;;;;;4976221;28;19944;-90
2022/01/07 02:53:18;;;;;;;;;;;4.50;99.90;;;;;;4975783;28;19929;-90
2022/01/07 02:55:46;;;;;;;;;;;3.90;99.90;;;;;;4971651;28;19930;-90
2022/01/07 02:58:13;;;;;;;;;;;4.40;99.90;;;;;;4959785;28;19922;-90
2022/01/07 03:00:40;;;;;;;;;;;3.90;99.90;;;;;;4976456;28;19933;-90
2022/01/07 03:03:07;;;;;;;;;;;3.70;99.90;;;;;;4976770;28;19945;-90
2022/01/07 03:05:35;;;;;;;;;;;3.80;99.90;;;;;;4976500;28;19928;-90
2022/01/07 03:08:01;;;;;;;;;;;3.60;99.90;;;;;;4975854;28;19922;-90
2022/01/07 03:10:30;;;;;;;;;;;3.60;99.90;;;;;;4976902;28;19928;-90
2022/01/07 03:13:00;;;;;;;;;;;3.50;99.90;;;;;;4976511;28;20013;-90
2022/01/07 03:15:27;;;;;;;;;;;3.80;99.90;;;;;;4976467;28;19922;-90
2022/01/07 03:17:54;;;;;;;;;;;3.50;99.90;;;;;;4976272;28;19922;-91
2022/01/07 03:20:21;;;;;;;;;;;1.60;99.90;;;;;;4976915;28;19990;-90
2022/01/07 03:22:49;;;;;;;;;;;3.50;99.90;;;;;;4976159;28;19977;-90
2022/01/07 03:25:16;;;;;;;;;;;3.50;99.90;;;;;;4976092;28;19922;-91
2022/01/07 03:27:44;;;;;;;;;;;3.60;99.90;;;;;;4976422;28;19922;-90
2022/01/07 03:30:14;;;;;;;;;;;3.50;99.90;;;;;;4976551;28;19926;-90
2022/01/07 03:32:40;;;;;;;;;;;3.40;99.90;;;;;;4976326;28;19926;-89
2022/01/07 03:35:09;;;;;;;;;;;3.60;99.90;;;;;;4975652;28;19922;-90
2022/01/07 03:37:39;;;;;;;;;;;3.40;99.90;;;;;;4969498;28;19922;-90
2022/01/07 03:40:06;;;;;;;;;;;4.70;99.90;;;;;;4984794;28;20365;-90
2022/01/07 03:42:33;;;;;;;;;;;3.80;99.90;;;;;;4987745;28;19922;-90
2022/01/07 03:45:00;;;;;;;;;;;3.90;99.90;;;;;;4983228;28;20292;-90
2022/01/07 03:47:29;;;;;;;;;;;3.60;99.90;;;;;;4975256;28;19922;-90
2022/01/07 03:49:56;;;;;;;;;;;3.00;99.90;;;;;;4976456;28;19922;-90
2022/01/07 03:52:23;;;;;;;;;;;2.90;99.90;;;;;;4976129;28;20340;-90
2022/01/07 03:54:51;;;;;;;;;;;3.70;99.90;;;;;;4975756;28;20337;-90
2022/01/07 03:57:17;;;;;;;;;;;4.00;99.90;;;;;;4975536;28;20018;-90
2022/01/07 03:59:44;;;;;;;;;;;4.30;99.90;;;;;;4976136;28;19922;-90
2022/01/07 04:02:11;;;;;;;;;;;4.30;99.90;;;;;;4976147;28;19921;-90
2022/01/07 04:04:40;;;;;;;;;;;4.00;99.90;;;;;;4975785;28;20287;-89
2022/01/07 04:07:06;;;;;;;;;;;2.40;99.90;;;;;;4976351;28;19922;-90
2022/01/07 04:09:33;;;;;;;;;;;3.60;99.90;;;;;;4975721;28;19926;-88
2022/01/07 04:12:01;;;;;;;;;;;3.50;99.90;;;;;;4982849;28;19928;-89
2022/01/07 04:14:28;;;;;;;;;;;3.50;99.90;;;;;;4985426;28;19970;-90
2022/01/07 04:16:55;;;;;;;;;;;4.00;99.90;;;;;;4975523;28;19922;-89
2022/01/07 04:19:22;;;;;;;;;;;3.80;99.90;;;;;;4976261;28;19944;-90
2022/01/07 04:21:51;;;;;;;;;;;3.80;99.90;;;;;;4979437;28;19922;-91
2022/01/07 04:24:18;;;;;;;;;;;3.50;99.90;;;;;;4979274;28;20021;-90
2022/01/07 04:26:45;;;;;;;;;;;3.10;99.90;;;;;;4981272;28;19929;-90
2022/01/07 04:29:12;;;;;;;;;;;4.30;99.90;;;;;;4981467;28;20348;-89
2022/01/07 04:31:39;;;;;;;;;;;4.10;99.90;;;;;;4982200;28;20296;-90
2022/01/07 04:34:06;;;;;;;;;;;3.40;99.90;;;;;;4981463;28;20376;-88
2022/01/07 04:36:33;;;;;;;;;;;3.40;99.90;;;;;;4978999;28;20284;-90
2022/01/07 04:39:01;;;;;;;;;;;3.80;99.90;;;;;;4978896;28;19922;-89
2022/01/07 04:41:28;;;;;;;;;;;3.40;99.90;;;;;;4979381;28;20383;-90
2022/01/07 04:43:55;;;;;;;;;;;3.40;99.90;;;;;;4978906;28;19922;-90
2022/01/07 04:46:22;;;;;;;;;;;3.80;99.90;;;;;;4978887;28;19922;-90
2022/01/07 04:48:49;;;;;;;;;;;2.80;99.90;;;;;;4979120;28;19961;-90
2022/01/07 04:51:17;;;;;;;;;;;3.40;99.90;;;;;;4979145;28;19921;-90
2022/01/07 04:53:44;;;;;;;;;;;3.80;99.90;;;;;;4979176;28;19922;-90
2022/01/07 04:56:13;;;;;;;;;;;3.50;99.90;;;;;;4979101;28;19945;-89
2022/01/07 04:58:40;;;;;;;;;;;3.40;99.90;;;;;;4968055;28;19928;-89
2022/01/07 05:01:08;;;;;;;;;;;3.90;99.90;;;;;;4979041;28;19951;-90
2022/01/07 05:03:35;;;;;;;;;;;3.60;99.90;;;;;;4978826;28;19922;-91
2022/01/07 05:06:16;;;;;;;;;;;3.50;99.90;;;;;;4979007;28;19926;-90
2022/01/07 05:08:43;;;;;;;;;;;3.40;99.90;;;;;;4959646;29;20351;-90
2022/01/07 05:11:10;;;;;;;;;;;3.40;99.90;;;;;;4959478;29;20333;-90
2022/01/07 05:13:39;;;;;;;;;;;3.60;99.90;;;;;;4959514;29;19926;-90
2022/01/07 05:16:06;;;;;;;;;;;3.80;99.90;;;;;;4959561;29;19926;-91
2022/01/07 05:18:33;;;;;;;;;;;3.50;99.90;;;;;;4962879;28;19922;-90
2022/01/07 05:21:00;;;;;;;;;;;3.00;99.90;;;;;;4978261;28;20269;-91
2022/01/07 05:23:27;;;;;;;;;;;3.60;99.90;;;;;;4978502;28;19968;-90
2022/01/07 05:25:54;;;;;;;;;;;3.50;99.90;;;;;;4978292;28;20372;-90
2022/01/07 05:28:21;;;;;;;;;;;3.40;99.90;;;;;;4978498;28;19968;-90
2022/01/07 05:30:49;;;;;;;;;;;3.40;99.90;;;;;;4977845;28;19977;-91
2022/01/07 05:33:16;;;;;;;;;;;3.40;99.90;;;;;;4978633;28;20323;-90
2022/01/07 05:35:42;;;;;;;;;;;4.30;99.90;;;;;;4978125;28;20293;-91
2022/01/07 05:38:10;;;;;;;;;;;3.50;99.90;;;;;;4978033;28;19922;-91
2022/01/07 05:40:37;;;;;;;;;;;3.70;99.90;;;;;;4977773;28;19926;-90
2022/01/07 05:43:04;;;;;;;;;;;3.40;99.90;;;;;;4978070;28;19929;-90
2022/01/07 05:45:33;;;;;;;;;;;3.40;99.90;;;;;;4977849;28;19930;-90
2022/01/07 05:48:03;;;;;;;;;;;3.00;99.90;;;;;;4977630;28;19922;-91
2022/01/07 05:50:30;;;;;;;;;;;3.60;99.90;;;;;;4977696;28;19925;-90
2022/01/07 05:52:57;;;;;;;;;;;3.50;99.90;;;;;;4977717;28;19922;-90
2022/01/07 05:55:24;;;;;;;;;;;3.30;99.90;;;;;;4977851;28;19933;-90
2022/01/07 05:57:50;;;;;;;;;;;3.60;99.90;;;;;;4977633;28;20435;-90
2022/01/07 06:00:18;;;;;;;;;;;3.70;99.90;;;;;;4977627;28;19926;-90
2022/01/07 06:02:45;;;;;;;;;;;3.50;99.90;;;;;;4977029;28;19929;-90
2022/01/07 06:05:13;;;;;;;;;;;3.50;99.90;;;;;;4977546;28;19929;-89
2022/01/07 06:07:40;;;;;;;;;;;3.40;99.90;;;;;;4976967;28;19926;-89
2022/01/07 06:10:08;;;;;;;;;;;3.40;99.90;;;;;;4976841;28;20000;-90
2022/01/07 06:12:35;;;;;;;;;;;3.70;99.90;;;;;;4976850;28;19922;-90
2022/01/07 06:15:01;;;;;;;;;;;3.60;99.90;;;;;;4976760;28;19929;-91
2022/01/07 06:17:30;;;;;;;;;;;4.00;99.90;;;;;;4976870;28;19929;-91
2022/01/07 06:19:59;;;;;;;;;;;3.60;99.90;;;;;;4974944;28;19929;-90
2022/01/07 06:22:28;;;;;;;;;;;4.00;99.90;;;;;;4977097;28;19923;-89
2022/01/07 06:24:54;;;;;;;;;;;3.90;99.90;;;;;;4976658;28;19929;-90
2022/01/07 06:27:21;;;;;;;;;;;4.30;99.90;;;;;;4976597;28;19922;-91
2022/01/07 06:29:48;;;;;;;;;;;3.60;99.90;;;;;;4976557;28;19922;-91
2022/01/07 06:32:15;;;;;;;;;;;3.50;99.90;;;;;;4976947;28;19945;-91
2022/01/07 06:34:42;;;;;;;;;;;4.30;99.90;;;;;;4976886;28;19933;-91
2022/01/07 06:37:09;;;;;;;;;;;2.30;99.90;;;;;;4977192;28;19922;-90
2022/01/07 06:39:38;;;;;;;;;;;4.10;99.90;;;;;;4977879;28;19922;-90
2022/01/07 06:42:07;;;;;;;;;;;4.00;99.90;;;;;;4976575;28;19945;-90
2022/01/07 06:44:35;;;;;;;;;;;3.70;99.90;;;;;;4977378;28;19922;-90
2022/01/07 06:47:08;;;;;;;;;;;4.30;99.90;;;;;;4976937;28;19925;-90
2022/01/07 06:49:35;;;;;;;;;;;4.20;99.90;;;;;;4977440;28;20283;-90
2022/01/07 06:52:04;;;;;;;;;;;3.40;99.90;;;;;;4976377;28;19935;-90
2022/01/07 06:54:31;;;;;;;;;;;3.90;99.90;;;;;;4976455;28;19929;-90
2022/01/07 06:57:00;;;;;;;;;;;3.80;99.90;;;;;;4976272;28;19922;-90
2022/01/07 06:59:26;;;;;;;;;;;4.20;99.90;;;;;;4976216;28;19922;-90
2022/01/07 07:01:54;;;;;;;;;;;4.50;99.90;;;;;;4976615;28;19929;-90
2022/01/07 07:04:21;;;;;;;;;;;3.90;99.90;;;;;;4976053;28;20021;-90
2022/01/07 07:06:48;;;;;;;;;;;3.40;99.90;;;;;;4976359;28;20406;-90
2022/01/07 07:09:16;;;;;;;;;;;4.00;99.90;;;;;;4976626;28;19968;-90
2022/01/07 07:11:43;;;;;;;;;;;3.60;99.90;;;;;;4976470;28;19977;-90
2022/01/07 07:14:12;;;;;;;;;;;3.80;99.90;;;;;;4976471;28;20327;-90
2022/01/07 07:16:39;;;;;;;;;;;3.30;99.90;;;;;;4976628;28;19922;-91
2022/01/07 07:19:06;;;;;;;;;;;3.20;99.90;;;;;;4976148;28;19922;-90
2022/01/07 07:21:32;;;;;;;;;;;3.00;99.90;;;;;;4976095;28;20376;-90
2022/01/07 07:23:59;;;;;;;;;;;3.10;99.90;;;;;;4976424;28;19922;-89
2022/01/07 07:26:29;;;;;;;;;;;3.20;99.90;;;;;;4976954;28;19929;-89
2022/01/07 07:28:56;;;;;;;;;;;3.00;99.90;;;;;;4977273;28;20276;-89
2022/01/07 07:31:24;;;;;;;;;;;3.10;99.90;;;;;;4976446;28;20227;-90
2022/01/07 07:34:19;;;;;;;;;;;3.20;99.90;;;;;;4976828;28;20288;-89
2022/01/07 07:36:46;;;;;;;;;;;1.20;99.90;;;;;;4976821;28;19926;-91
2022/01/07 07:39:16;;;;;;;;;;;2.40;99.90;;;;;;4976149;28;19926;-91
2022/01/07 07:41:43;;;;;;;;;;;3.10;99.90;;;;;;4976065;28;19962;-91
2022/01/07 07:47:07;;;;;;;;;;;2.10;99.90;;;;;;4974937;28;20432;-91
2022/01/07 07:49:45;;;;;;;;;;;4.70;99.90;;;;;;4976876;28;19973;-90
2022/01/07 07:52:13;;;;;;;;;;;4.10;99.90;;;;;;4977999;28;19922;-90
2022/01/07 07:54:42;;;;;;;;;;;2.90;99.90;;;;;;4979844;28;19961;-90
2022/01/07 07:57:11;;;;;;;;;;;3.30;99.90;;;;;;4979819;28;19922;-90
2022/01/07 07:59:40;;;;;;;;;;;2.80;99.90;;;;;;4980039;28;19922;-91
2022/01/07 08:02:10;;;;;;;;;;;3.30;99.90;;;;;;4979938;28;19922;-90
2022/01/07 08:04:40;;;;;;;;;;;3.60;99.90;;;;;;4982268;28;20291;-91
2022/01/07 08:07:17;;;;;;;;;;;;;;;;;;;;;
2022/01/07 08:09:45;;;;;;;;;;;3.10;99.90;;;;;;4981148;28;19926;-88
2022/01/07 08:12:20;;;;;;;;;;;3.60;99.90;;;;;;4980558;28;19953;-92
2022/01/07 08:17:33;;;;;;;;;;;4.10;99.90;;;;;;4979558;28;20017;-89
2022/01/07 08:20:00;;;;;;;;;;;3.20;99.90;;;;;;4979986;28;19977;-89
2022/01/07 08:22:27;;;;;;;;;;;3.60;99.90;;;;;;4980022;28;20467;-90
2022/01/07 08:24:54;;;;;;;;;;;3.50;99.90;;;;;;4980010;28;19926;-90
2022/01/07 08:27:22;;;;;;;;;;;3.50;99.90;;;;;;4984445;28;20030;-91
2022/01/07 08:29:57;;;;;;;;;;;3.10;99.90;;;;;;4962702;28;19922;-91
2022/01/07 08:35:21;;;;;;;;;;;3.00;99.90;;;;;;4968319;28;19922;-90
2022/01/07 08:37:48;;;;;;;;;;;3.70;99.90;;;;;;4980646;28;19972;-90
2022/01/07 08:40:15;;;;;;;;;;;3.30;99.90;;;;;;4979221;28;19926;-90
2022/01/07 08:42:41;;;;;;;;;;;3.80;99.90;;;;;;4981549;28;19965;-91
2022/01/07 08:45:09;;;;;;;;;;;3.50;99.90;;;;;;4980872;28;19945;-90
2022/01/07 08:47:35;;;;;;;;;;;3.60;99.90;;;;;;4982612;28;19930;-88
2022/01/07 08:50:03;;;;;;;;;;;4.10;99.90;;;;;;4984120;28;19934;-89
2022/01/07 08:52:33;;;;;;;;;;;3.80;99.90;;;;;;4969671;28;19925;-87
2022/01/07 08:55:02;;;;;;;;;;;3.90;99.90;;;;;;4937317;28;19926;-90
2022/01/07 08:57:31;;;;;;;;;;;3.80;99.90;;;;;;4944905;28;20037;-85
2022/01/07 08:59:58;;;;;;;;;;;3.70;99.90;;;;;;4934374;28;20526;-88
2022/01/07 09:02:25;;;;;;;;;;;4.30;99.90;;;;;;4938203;28;19980;-87
2022/01/07 09:04:56;;;;;;;;;;;3.60;99.90;;;;;;4950351;28;19922;-90
2022/01/07 09:07:23;;;;;;;;;;;3.50;99.90;;;;;;4977662;28;19926;-88
2022/01/07 09:09:51;;;;;;;;;;;3.50;99.90;;;;;;4966092;28;20365;-87
2022/01/07 09:12:18;;;;;;;;;;;4.40;99.90;;;;;;4964766;28;19977;-86
2022/01/07 09:14:46;;;;;;;;;;;3.50;99.90;;;;;;4977450;28;19926;-86
2022/01/07 09:17:14;;;;;;;;;;;3.50;99.90;;;;;;4963007;28;19952;-88
2022/01/07 09:19:47;;;;;;;;;;;3.50;99.90;;;;;;4967782;28;19929;-89
2022/01/07 09:22:14;;;;;;;;;;;3.30;99.90;;;;;;4928921;28;19930;-88
2022/01/07 09:24:42;;;;;;;;;;;3.60;99.90;;;;;;4960059;28;19937;-90
2022/01/07 09:27:10;;;;;;;;;;;3.80;99.90;;;;;;4975847;28;19930;-88
2022/01/07 09:29:37;;;;;;;;;;;3.60;99.90;;;;;;4978462;28;19932;-88
2022/01/07 09:32:07;;;;;;;;;;;3.60;99.90;;;;;;4969928;28;20365;-84
2022/01/07 09:34:35;;;;;;;;;;;3.70;99.90;;;;;;4976772;28;19993;-87
2022/01/07 09:37:02;;;;;;;;;;;3.70;99.90;;;;;;4976336;28;19922;-89
2022/01/07 09:39:29;;;;;;;;;;;3.70;99.90;;;;;;4973799;28;19952;-88
2022/01/07 09:41:56;;;;;;;;;;;3.80;99.90;;;;;;4973847;28;19926;-89
2022/01/07 09:44:26;;;;;;;;;;;4.00;99.90;;;;;;4963649;28;19971;-89
2022/01/07 09:46:53;;;;;;;;;;;4.00;99.90;;;;;;4967369;28;19922;-88
2022/01/07 09:49:20;;;;;;;;;;;3.80;99.90;;;;;;4964117;28;19937;-88
2022/01/07 09:51:47;;;;;;;;;;;3.90;99.90;;;;;;4970433;28;20285;-89
2022/01/07 09:54:14;;;;;;;;;;;4.00;99.90;;;;;;4964578;28;19930;-88
2022/01/07 09:56:44;;;;;;;;;;;4.00;99.90;;;;;;4962386;28;19989;-90
2022/01/07 09:59:12;;;;;;;;;;;4.00;99.90;;;;;;4965140;28;19929;-88
2022/01/07 10:01:59;;;;;;;;;;;4.00;99.90;;;;;;4961649;28;20002;-87
2022/01/07 10:04:27;;;;;;;;;;;6.90;99.90;;;;;;4971042;28;19926;-88
2022/01/07 10:07:09;;;;;;;;;;;4.70;99.90;;;;;;4971413;28;19985;-90
2022/01/07 10:09:40;;;;;;;;;;;4.60;99.90;;;;;;4975049;28;19933;-92
2022/01/07 10:12:08;;;;;;;;;;;3.20;99.90;;;;;;4975374;28;19926;-88
2022/01/07 10:14:37;;;;;;;;;;;4.60;99.90;;;;;;4962863;28;19961;-85
2022/01/07 10:17:07;;;;;;;;;;;4.60;99.90;;;;;;4955846;28;19933;-87
2022/01/07 10:19:35;;;;;;;;;;;4.60;99.90;;;;;;4972420;28;19949;-88
2022/01/07 10:22:06;;;;;;;;;;;4.60;99.90;;;;;;4968827;28;19980;-87
2022/01/07 10:24:52;;;;;;;;;;;4.80;99.90;;;;;;4968159;28;20265;-88
2022/01/07 10:27:18;;;;;;;;;;;4.70;99.90;;;;;;4970281;28;20312;-87
2022/01/07 10:29:46;;;;;;;;;;;4.80;99.90;;;;;;4967386;28;19973;-87
2022/01/07 10:32:25;;;;;;;;;;;4.80;99.90;;;;;;4960666;28;20024;-86
2022/01/07 10:35:02;;;;;;;;;;;5.00;99.90;;;;;;4959931;28;20044;-86
2022/01/07 10:37:29;;;;;;;;;;;4.60;99.90;;;;;;4965260;28;19977;-86
2022/01/07 10:39:58;;;;;;;;;;;5.20;99.90;;;;;;4941108;28;19922;-88
2022/01/07 10:42:25;;;;;;;;;;;4.90;99.90;;;;;;4964808;28;19930;-87
2022/01/07 10:44:59;;;;;;;;;;;4.90;99.90;;;;;;4960231;28;19923;-86
2022/01/07 10:47:30;;;;;;;;;;;5.10;99.90;;;;;;4969270;28;19933;-86
2022/01/07 10:50:16;;;;;;;;;;;4.90;99.90;;;;;;4967713;28;20364;-85
2022/01/07 10:52:43;;;;;;;;;;;4.80;99.90;;;;;;4971882;28;19922;-87
2022/01/07 10:55:14;;;;;;;;;;;4.60;99.90;;;;;;4970725;28;20043;-88
2022/01/07 10:57:43;;;;;;;;;;;4.60;99.90;;;;;;4975015;28;19984;-87
2022/01/07 11:00:11;;;;;;;;;;;4.80;99.90;;;;;;4968387;28;20383;-86
2022/01/07 11:02:43;;;;;;;;;;;4.30;99.90;;;;;;4935659;28;19929;-87
2022/01/07 11:05:09;;;;;;;;;;;4.90;99.90;;;;;;4958729;28;20008;-86
2022/01/07 11:07:40;;;;;;;;;;;4.10;99.90;;;;;;4955128;28;20935;-87
2022/01/07 11:10:08;;;;;;;;;;;4.20;99.90;;;;;;4933306;28;19959;-86
2022/01/07 11:12:37;;;;;;;;;;;4.30;99.90;;;;;;4962363;28;19940;-89
2022/01/07 11:15:06;;;;;;;;;;;4.00;99.90;;;;;;4962354;28;19929;-88
2022/01/07 11:17:33;;;;;;;;;;;3.30;99.90;;;;;;4969983;28;19922;-88
2022/01/07 11:20:10;;;;;;;;;;;4.60;99.90;;;;;;4969530;28;20011;-88
2022/01/07 11:22:42;;;;;;;;;;;4.10;99.90;;;;;;4969096;28;20384;-88
2022/01/07 11:25:26;;;;;;;;;;;2.60;99.90;;;;;;4966792;28;19925;-91
2022/01/07 11:27:57;;;;;;;;;;;2.10;99.90;;;;;;4965002;28;19922;-89
2022/01/07 11:30:26;;;;;;;;;;;4.50;99.90;;;;;;4973252;28;19967;-89
2022/01/07 11:32:53;;;;;;;;;;;5.60;99.90;;;;;;4971447;28;19922;-89
2022/01/07 11:35:47;;;;;;;;;;;4.70;99.90;;;;;;4969745;28;20395;-90
2022/01/07 11:38:32;;;;;;;;;;;5.00;99.90;;;;;;4972519;28;20013;-87
2022/01/07 11:41:01;;;;;;;;;;;4.60;99.90;;;;;;4972237;28;19989;-86
2022/01/07 11:43:35;;;;;;;;;;;4.90;99.90;;;;;;4970413;28;20555;-86
2022/01/07 11:46:20;;;;;;;;;;;6.50;99.90;;;;;;4970281;28;19922;-87
2022/01/07 11:48:47;;;;;;;;;;;5.40;99.90;;;;;;4971502;28;20037;-88
2022/01/07 11:51:15;;;;;;;;;;;5.20;99.90;;;;;;4972676;28;20348;-86
2022/01/07 11:54:04;;;;;;;;;;;5.10;99.90;;;;;;4963824;28;19926;-86
2022/01/07 11:56:33;;;;;;;;;;;4.70;99.90;;;;;;4968840;28;19958;-86
2022/01/07 11:59:10;;;;;;;;;;;4.70;99.90;;;;;;4970518;28;19961;-86
2022/01/07 12:01:42;;;;;;;;;;;2.60;99.90;;;;;;4968092;28;19934;-90
2022/01/07 12:04:27;;;;;;;;;;;4.10;99.90;;;;;;4968801;28;19930;-87
2022/01/07 12:06:54;;;;;;;;;;;5.00;99.90;;;;;;4966794;28;19944;-86
2022/01/07 12:09:28;;;;;;;;;;;4.80;99.90;;;;;;4970539;28;19968;-88
2022/01/07 12:12:00;;;;;;;;;;;5.20;99.90;;;;;;4972083;28;20400;-87
2022/01/07 12:14:30;;;;;;;;;;;5.00;99.90;;;;;;4971779;28;19938;-88
2022/01/07 12:16:57;;;;;;;;;;;5.10;99.90;;;;;;4968812;28;19930;-87
2022/01/07 12:19:52;;;;;;;;;;;5.00;99.90;;;;;;4970986;28;19923;-86
2022/01/07 12:22:20;;;;;;;;;;;5.40;99.90;;;;;;4973360;28;20302;-88
2022/01/07 12:24:55;;;;;;;;;;;5.50;99.90;;;;;;4969941;28;19988;-89
2022/01/07 12:27:28;;;;;;;;;;;5.70;99.90;;;;;;4971571;28;19926;-85
2022/01/07 12:30:02;;;;;;;;;;;5.60;99.90;;;;;;4971308;28;19922;-91
2022/01/07 12:32:34;;;;;;;;;;;5.60;99.90;;;;;;4959906;28;20016;-89
2022/01/07 12:35:18;;;;;;;;;;;5.50;99.90;;;;;;4978633;28;19941;-88
2022/01/07 12:37:45;;;;;;;;;;;5.60;99.90;;;;;;4967805;28;20020;-87
2022/01/07 12:40:12;;;;;;;;;;;5.50;99.90;;;;;;4971169;28;19945;-88
2022/01/07 12:42:44;;;;;;;;;;;5.50;99.90;;;;;;4972858;28;19922;-87
2022/01/07 12:45:19;;;;;;;;;;;5.00;99.90;;;;;;4973652;28;19921;-89
2022/01/07 12:47:47;;;;;;;;;;;5.50;99.90;;;;;;4975814;28;19921;-89
2022/01/07 12:50:24;;;;;;;;;;;5.50;99.90;;;;;;4970234;28;19922;-88
2022/01/07 12:52:55;;;;;;;;;;;5.60;99.90;;;;;;4965977;28;20355;-89
2022/01/07 12:55:26;;;;;;;;;;;5.50;99.90;;;;;;4966072;28;19957;-90
2022/01/07 12:57:58;;;;;;;;;;;5.20;99.90;;;;;;4972333;28;19936;-88
2022/01/07 13:00:29;;;;;;;;;;;5.50;99.90;;;;;;4971533;28;20303;-88
2022/01/07 13:02:56;;;;;;;;;;;5.50;99.90;;;;;;4975629;28;19958;-87
2022/01/07 13:05:28;;;;;;;;;;;5.30;99.90;;;;;;4972566;28;20004;-87
2022/01/07 13:08:02;;;;;;;;;;;5.40;99.90;;;;;;4959223;28;20731;-89
2022/01/07 13:10:30;;;;;;;;;;;6.10;99.90;;;;;;4959849;28;19930;-86
2022/01/07 13:13:06;;;;;;;;;;;5.80;99.90;;;;;;4967697;28;19930;-89
2022/01/07 13:15:45;;;;;;;;;;;5.50;99.90;;;;;;4967676;28;20307;-87
2022/01/07 13:18:19;;;;;;;;;;;5.70;99.90;;;;;;4970002;28;19929;-89
2022/01/07 13:20:46;;;;;;;;;;;5.60;99.90;;;;;;4969929;28;19922;-87
2022/01/07 13:23:14;;;;;;;;;;;5.70;99.90;;;;;;4964994;28;20118;-88
2022/01/07 13:25:50;;;;;;;;;;;5.50;99.90;;;;;;4969459;28;19933;-91
2022/01/07 13:28:33;;;;;;;;;;;5.30;99.90;;;;;;4977600;28;19996;-87
2022/01/07 13:31:00;;;;;;;;;;;7.60;99.90;;;;;;4982376;23;20009;-88
2022/01/07 13:33:30;;;;;;;;;;;5.20;99.90;;;;;;4966256;28;20057;-86
2022/01/07 13:35:57;;;;;;;;;;;5.00;99.90;;;;;;4957619;28;20072;-87
2022/01/07 13:38:27;;;;;;;;;;;4.50;99.90;;;;;;4964985;28;19925;-87
2022/01/07 13:41:04;;;;;;;;;;;5.00;99.90;;;;;;4963898;28;19930;-88
2022/01/07 13:43:33;;;;;;;;;;;4.70;99.90;;;;;;4965434;28;19929;-87
2022/01/07 13:46:23;;;;;;;;;;;4.30;99.90;;;;;;4964675;28;20198;-90
2022/01/07 13:48:51;;;;;;;;;;;4.40;99.90;;;;;;4961289;28;19934;-88
2022/01/07 13:51:19;;;;;;;;;;;4.30;99.90;;;;;;4961711;28;19953;-87
2022/01/07 13:54:01;;;;;;;;;;;4.20;99.90;;;;;;4965120;28;19922;-87
2022/01/07 13:56:34;;;;;;;;;;;4.30;99.90;;;;;;4973575;28;19922;-90
2022/01/07 13:59:07;;;;;;;;;;;4.50;99.90;;;;;;4970489;28;19926;-88
2022/01/07 14:01:45;;;;;;;;;;;4.70;99.90;;;;;;4971703;28;20368;-90
2022/01/07 14:04:12;;;;;;;;;;;4.40;99.90;;;;;;4962562;28;20041;-89
2022/01/07 14:06:41;;;;;;;;;;;4.40;99.90;;;;;;4966665;28;19922;-91
2022/01/07 14:09:12;;;;;;;;;;;3.90;99.90;;;;;;4964317;28;19922;-88
2022/01/07 14:11:39;;;;;;;;;;;4.20;99.90;;;;;;4965267;28;19974;-88
2022/01/07 14:14:16;;;;;;;;;;;4.00;99.90;;;;;;4958654;28;19932;-89
2022/01/07 14:16:47;;;;;;;;;;;3.60;99.90;;;;;;4978755;28;19922;-89
2022/01/07 14:19:15;;;;;;;;;;;3.70;99.90;;;;;;4979827;28;20292;-88
2022/01/07 14:21:42;;;;;;;;;;;2.00;99.90;;;;;;4968164;28;19922;-87
2022/01/07 14:24:12;;;;;;;;;;;3.70;99.90;;;;;;4967916;28;20020;-89
2022/01/07 14:26:46;;;;;;;;;;;3.40;99.90;;;;;;4968749;28;19922;-86
2022/01/07 14:29:14;;;;;;;;;;;2.40;99.90;;;;;;4966354;28;19968;-86
2022/01/07 14:31:43;;;;;;;;;;;3.40;99.90;;;;;;4969214;28;19922;-88
2022/01/07 14:34:12;;;;;;;;;;;2.80;99.90;;;;;;4970843;28;19930;-87
2022/01/07 14:36:39;;;;;;;;;;;3.80;99.90;;;;;;4965103;28;20376;-86
2022/01/07 14:39:06;;;;;;;;;;;3.30;99.90;;;;;;4967568;28;19922;-87
2022/01/07 14:41:50;;;;;;;;;;;3.30;99.90;;;;;;4958523;28;19949;-85
2022/01/07 14:44:19;;;;;;;;;;;3.20;99.90;;;;;;4961244;28;19929;-84
2022/01/07 14:46:46;;;;;;;;;;;3.00;99.90;;;;;;4965877;28;20466;-87
2022/01/07 14:49:13;;;;;;;;;;;3.20;99.90;;;;;;4960537;28;19933;-86
2022/01/07 14:51:40;;;;;;;;;;;3.60;99.90;;;;;;4964290;28;19963;-87